createdAt,value
2022-11-15T00:00:52.165Z,959.57
2022-11-15T00:01:52.231Z,959.55
2022-11-15T00:03:52.261Z,959.51
2022-11-15T00:04:52.155Z,959.54
2022-11-15T00:05:53.271Z,959.52
2022-11-15T00:06:52.356Z,959.5
2022-11-15T00:07:55.417Z,959.51
2022-11-15T00:08:52.527Z,959.5
2022-11-15T00:09:52.410Z,959.48
2022-11-15T00:10:52.241Z,959.49
2022-11-15T00:11:52.187Z,959.42
2022-11-15T00:12:52.269Z,959.46
2022-11-15T00:13:52.190Z,959.47
2022-11-15T00:14:52.191Z,959.42
2022-11-15T00:15:52.278Z,959.44
2022-11-15T00:16:52.355Z,959.39
2022-11-15T00:17:52.200Z,959.41
2022-11-15T00:18:52.283Z,959.43
2022-11-15T00:19:52.248Z,959.4
2022-11-15T00:20:52.216Z,959.44
2022-11-15T00:21:52.201Z,959.4
2022-11-15T00:22:52.219Z,959.43
2022-11-15T00:24:52.286Z,959.42
2022-11-15T00:25:52.247Z,959.37
2022-11-15T00:26:52.336Z,959.38
2022-11-15T00:28:52.231Z,959.33
2022-11-15T00:29:52.339Z,959.31
2022-11-15T00:30:52.232Z,959.33
2022-11-15T00:32:52.350Z,959.27
2022-11-15T00:33:52.310Z,959.31
2022-11-15T00:34:52.370Z,959.28
2022-11-15T00:35:52.345Z,959.3
2022-11-15T00:37:53.400Z,959.24
2022-11-15T00:39:52.310Z,959.21
2022-11-15T00:40:52.387Z,959.26
2022-11-15T00:41:52.254Z,959.22
2022-11-15T00:42:52.432Z,959.23
2022-11-15T00:43:52.375Z,959.2
2022-11-15T00:44:52.352Z,959.18
2022-11-15T00:47:52.488Z,959.19
2022-11-15T00:48:53.455Z,959.17
2022-11-15T00:49:52.281Z,959.11
2022-11-15T00:50:52.359Z,959.15
2022-11-15T00:52:52.411Z,959.11
2022-11-15T00:53:52.369Z,959.1
2022-11-15T00:54:52.442Z,959.12
2022-11-15T00:55:52.407Z,959.11
2022-11-15T00:56:52.310Z,959.09
2022-11-15T00:57:52.435Z,959.12
2022-11-15T00:58:52.322Z,959.07
2022-11-15T00:59:52.297Z,959.12
2022-11-15T01:00:52.317Z,959.08
2022-11-15T01:01:52.415Z,959.13
2022-11-15T01:03:52.306Z,959.09
2022-11-15T01:04:52.313Z,959.16
2022-11-15T01:05:52.381Z,959.12
2022-11-15T01:06:52.555Z,959.16
2022-11-15T01:07:52.412Z,959.2
2022-11-15T01:08:52.371Z,959.21
2022-11-15T01:09:52.327Z,959.22
2022-11-15T01:10:52.421Z,959.2
2022-11-15T01:11:52.404Z,959.22
2022-11-15T01:12:53.558Z,959.19
2022-11-15T01:13:52.332Z,959.21
2022-11-15T01:14:52.399Z,959.23
2022-11-15T01:15:52.475Z,959.2
2022-11-15T01:16:52.417Z,959.21
2022-11-15T01:17:52.340Z,959.25
2022-11-15T01:18:52.461Z,959.2
2022-11-15T01:19:52.433Z,959.21
2022-11-15T01:20:52.414Z,959.23
2022-11-15T01:21:52.349Z,959.21
2022-11-15T01:22:52.434Z,959.24
2022-11-15T01:23:52.509Z,959.22
2022-11-15T01:25:52.437Z,959.19
2022-11-15T01:27:52.364Z,959.14
2022-11-15T01:28:52.450Z,959.15
2022-11-15T01:29:52.518Z,959.1
2022-11-15T01:30:52.351Z,959.06
2022-11-15T01:32:53.670Z,959.03
2022-11-15T01:33:52.375Z,959
2022-11-15T01:34:52.450Z,958.96
2022-11-15T01:35:52.379Z,958.91
2022-11-15T01:36:52.377Z,958.92
2022-11-15T01:37:52.387Z,958.88
2022-11-15T01:40:52.391Z,958.87
2022-11-15T01:41:52.383Z,958.89
2022-11-15T01:42:52.399Z,958.86
2022-11-15T01:45:52.498Z,958.85
2022-11-15T01:47:52.419Z,958.82
2022-11-15T01:48:52.492Z,958.79
2022-11-15T01:49:52.420Z,958.77
2022-11-15T01:50:52.417Z,958.76
2022-11-15T01:51:52.406Z,958.71
2022-11-15T01:52:53.994Z,958.77
2022-11-15T01:53:52.425Z,958.69
2022-11-15T01:54:52.504Z,958.67
2022-11-15T01:55:52.477Z,958.63
2022-11-15T01:56:52.547Z,958.61
2022-11-15T01:57:52.515Z,958.55
2022-11-15T01:58:53.792Z,958.58
2022-11-15T01:59:52.552Z,958.57
2022-11-15T02:02:52.431Z,958.55
2022-11-15T02:03:52.518Z,958.57
2022-11-15T02:04:53.834Z,958.6
2022-11-15T02:06:52.588Z,958.57
2022-11-15T02:07:52.612Z,958.59
2022-11-15T02:08:52.568Z,958.57
2022-11-15T02:09:52.528Z,958.52
2022-11-15T02:10:52.466Z,958.47
2022-11-15T02:11:52.461Z,958.46
2022-11-15T02:12:52.534Z,958.42
2022-11-15T02:13:52.461Z,958.38
2022-11-15T02:14:52.474Z,958.41
2022-11-15T02:16:53.874Z,958.4
2022-11-15T02:17:52.478Z,958.39
2022-11-15T02:19:54.398Z,958.37
2022-11-15T02:20:52.572Z,958.35
2022-11-15T02:21:52.549Z,958.34
2022-11-15T02:22:52.482Z,958.37
2022-11-15T02:23:52.588Z,958.35
2022-11-15T02:24:52.555Z,958.34
2022-11-15T02:25:53.921Z,958.35
2022-11-15T02:26:52.503Z,958.38
2022-11-15T02:27:52.568Z,958.35
2022-11-15T02:28:52.630Z,958.36
2022-11-15T02:29:52.598Z,958.37
2022-11-15T02:30:52.507Z,958.36
2022-11-15T02:31:52.504Z,958.34
2022-11-15T02:32:52.591Z,958.3
2022-11-15T02:33:53.953Z,958.28
2022-11-15T02:34:52.511Z,958.29
2022-11-15T02:35:52.604Z,958.24
2022-11-15T02:37:52.520Z,958.21
2022-11-15T02:38:52.613Z,958.2
2022-11-15T02:39:52.680Z,958.18
2022-11-15T02:40:52.545Z,958.19
2022-11-15T02:41:52.618Z,958.18
2022-11-15T02:42:52.611Z,958.17
2022-11-15T02:43:52.545Z,958.16
2022-11-15T02:45:52.579Z,958.14
2022-11-15T02:50:52.726Z,958.15
2022-11-15T02:52:52.676Z,958.13
2022-11-15T02:53:52.726Z,958.11
2022-11-15T02:54:52.562Z,958.14
2022-11-15T02:55:52.658Z,958.15
2022-11-15T02:56:52.663Z,958.2
2022-11-15T02:57:52.588Z,958.18
2022-11-15T02:58:52.677Z,958.14
2022-11-15T02:59:52.633Z,958.19
2022-11-15T03:00:52.622Z,958.17
2022-11-15T03:01:52.673Z,958.16
2022-11-15T03:02:52.584Z,958.11
2022-11-15T03:03:52.592Z,958.1
2022-11-15T03:04:52.586Z,958.09
2022-11-15T03:05:53.598Z,958.11
2022-11-15T03:07:54.791Z,958.08
2022-11-15T03:08:52.903Z,958.09
2022-11-15T03:09:52.717Z,958.08
2022-11-15T03:10:52.596Z,958.07
2022-11-15T03:11:52.596Z,958.01
2022-11-15T03:12:52.611Z,957.96
2022-11-15T03:13:52.683Z,957.97
2022-11-15T03:14:52.608Z,957.96
2022-11-15T03:15:52.616Z,957.9
2022-11-15T03:16:52.626Z,957.91
2022-11-15T03:17:52.625Z,957.9
2022-11-15T03:18:52.734Z,957.88
2022-11-15T03:21:52.733Z,957.9
2022-11-15T03:22:52.697Z,957.88
2022-11-15T03:23:52.629Z,957.9
2022-11-15T03:24:52.634Z,957.87
2022-11-15T03:25:52.697Z,957.88
2022-11-15T03:26:52.627Z,957.86
2022-11-15T03:28:52.709Z,957.88
2022-11-15T03:29:52.788Z,957.85
2022-11-15T03:30:52.743Z,957.84
2022-11-15T03:31:52.710Z,957.85
2022-11-15T03:32:52.649Z,957.82
2022-11-15T03:33:52.745Z,957.81
2022-11-15T03:34:53.742Z,957.77
2022-11-15T03:35:53.712Z,957.81
2022-11-15T03:36:52.746Z,957.78
2022-11-15T03:37:52.729Z,957.81
2022-11-15T03:38:52.672Z,957.8
2022-11-15T03:39:52.669Z,957.75
2022-11-15T03:40:52.660Z,957.79
2022-11-15T03:41:52.674Z,957.72
2022-11-15T03:42:52.760Z,957.74
2022-11-15T03:43:52.826Z,957.72
2022-11-15T03:45:52.764Z,957.74
2022-11-15T03:46:52.754Z,957.72
2022-11-15T03:47:52.682Z,957.69
2022-11-15T03:48:52.770Z,957.7
2022-11-15T03:49:52.729Z,957.67
2022-11-15T03:50:52.806Z,957.66
2022-11-15T03:51:52.689Z,957.68
2022-11-15T03:52:52.865Z,957.65
2022-11-15T03:53:52.713Z,957.66
2022-11-15T03:54:52.774Z,957.69
2022-11-15T03:55:52.847Z,957.7
2022-11-15T03:56:52.855Z,957.67
2022-11-15T03:57:52.795Z,957.7
2022-11-15T03:58:52.849Z,957.68
2022-11-15T03:59:52.811Z,957.71
2022-11-15T04:00:52.789Z,957.66
2022-11-15T04:01:52.747Z,957.71
2022-11-15T04:02:52.823Z,957.67
2022-11-15T04:03:52.778Z,957.7
2022-11-15T04:05:52.738Z,957.76
2022-11-15T04:06:52.848Z,957.78
2022-11-15T04:07:52.772Z,957.75
2022-11-15T04:08:52.816Z,957.79
2022-11-15T04:09:53.894Z,957.78
2022-11-15T04:10:52.780Z,957.79
2022-11-15T04:12:52.805Z,957.76
2022-11-15T04:14:52.827Z,957.73
2022-11-15T04:15:52.786Z,957.76
2022-11-15T04:16:52.753Z,957.78
2022-11-15T04:19:52.753Z,957.77
2022-11-15T04:20:52.761Z,957.74
2022-11-15T04:21:52.906Z,957.76
2022-11-15T04:22:52.878Z,957.74
2022-11-15T04:23:52.782Z,957.73
2022-11-15T04:24:53.983Z,957.72
2022-11-15T04:26:52.848Z,957.65
2022-11-15T04:27:52.921Z,957.67
2022-11-15T04:28:52.914Z,957.63
2022-11-15T04:29:52.853Z,957.66
2022-11-15T04:33:52.891Z,957.69
2022-11-15T04:34:52.909Z,957.68
2022-11-15T04:35:52.872Z,957.65
2022-11-15T04:36:52.945Z,957.66
2022-11-15T04:37:52.911Z,957.68
2022-11-15T04:38:52.971Z,957.7
2022-11-15T04:39:53.034Z,957.66
2022-11-15T04:40:53.010Z,957.68
2022-11-15T04:41:52.975Z,957.6
2022-11-15T04:42:52.774Z,957.63
2022-11-15T04:43:52.920Z,957.6
2022-11-15T04:44:52.828Z,957.59
2022-11-15T04:45:52.835Z,957.57
2022-11-15T04:46:52.910Z,957.54
2022-11-15T04:48:57.041Z,957.53
2022-11-15T04:49:52.913Z,957.55
2022-11-15T04:51:52.865Z,957.54
2022-11-15T04:53:52.831Z,957.56
2022-11-15T04:54:52.843Z,957.52
2022-11-15T04:55:52.834Z,957.49
2022-11-15T04:56:52.893Z,957.51
2022-11-15T04:57:52.961Z,957.52
2022-11-15T04:58:52.922Z,957.46
2022-11-15T05:00:53.050Z,957.47
2022-11-15T05:01:52.926Z,957.46
2022-11-15T05:02:52.863Z,957.47
2022-11-15T05:03:52.863Z,957.44
2022-11-15T05:04:52.932Z,957.41
2022-11-15T05:05:52.876Z,957.4
2022-11-15T05:06:52.977Z,957.39
2022-11-15T05:07:52.943Z,957.41
2022-11-15T05:08:52.867Z,957.39
2022-11-15T05:10:52.949Z,957.34
2022-11-15T05:11:52.876Z,957.37
2022-11-15T05:12:53.059Z,957.33
2022-11-15T05:13:53.055Z,957.32
2022-11-15T05:15:52.893Z,957.3
2022-11-15T05:16:54.206Z,957.27
2022-11-15T05:17:53.019Z,957.28
2022-11-15T05:19:52.921Z,957.27
2022-11-15T05:20:52.910Z,957.24
2022-11-15T05:21:52.907Z,957.26
2022-11-15T05:22:53.068Z,957.21
2022-11-15T05:23:52.907Z,957.17
2022-11-15T05:24:52.992Z,957.16
2022-11-15T05:25:53.061Z,957.15
2022-11-15T05:26:53.035Z,957.16
2022-11-15T05:27:52.995Z,957.19
2022-11-15T05:28:53.068Z,957.12
2022-11-15T05:29:53.045Z,957.14
2022-11-15T05:31:52.984Z,957.12
2022-11-15T05:33:52.927Z,957.11
2022-11-15T05:34:52.936Z,957.09
2022-11-15T05:35:53.044Z,957.08
2022-11-15T05:36:52.997Z,957.09
2022-11-15T05:37:53.085Z,957.07
2022-11-15T05:38:53.058Z,957.06
2022-11-15T05:39:52.948Z,957.04
2022-11-15T05:40:52.979Z,957.01
2022-11-15T05:41:53.054Z,957.05
2022-11-15T05:42:53.022Z,957
2022-11-15T05:43:52.954Z,957.01
2022-11-15T05:44:53.065Z,957.04
2022-11-15T05:45:53.010Z,957.03
2022-11-15T05:46:52.983Z,957
2022-11-15T05:47:52.961Z,957.01
2022-11-15T05:48:52.977Z,957.02
2022-11-15T05:49:52.978Z,956.98
2022-11-15T05:50:53.059Z,956.99
2022-11-15T05:51:52.979Z,957.02
2022-11-15T05:52:53.004Z,957
2022-11-15T05:53:53.006Z,956.98
2022-11-15T05:55:53.104Z,956.97
2022-11-15T05:56:53.071Z,956.96
2022-11-15T05:57:53.130Z,956.95
2022-11-15T05:58:56.813Z,956.9
2022-11-15T05:59:53.113Z,956.91
2022-11-15T06:00:54.414Z,956.95
2022-11-15T06:01:53.141Z,956.96
2022-11-15T06:02:53.075Z,956.93
2022-11-15T06:03:52.997Z,956.96
2022-11-15T06:04:53.116Z,956.97
2022-11-15T06:06:54.545Z,956.98
2022-11-15T06:08:53.108Z,956.96
2022-11-15T06:10:53.137Z,957.02
2022-11-15T06:11:53.085Z,957.03
2022-11-15T06:12:53.016Z,957.05
2022-11-15T06:13:53.034Z,957.02
2022-11-15T06:14:53.030Z,957.03
2022-11-15T06:15:53.051Z,957.04
2022-11-15T06:16:53.032Z,957.01
2022-11-15T06:18:53.040Z,957.03
2022-11-15T06:19:53.132Z,957.02
2022-11-15T06:20:53.098Z,956.99
2022-11-15T06:21:53.050Z,956.97
2022-11-15T06:23:53.057Z,956.99
2022-11-15T06:24:53.174Z,957.02
2022-11-15T06:25:53.249Z,956.98
2022-11-15T06:27:53.173Z,956.97
2022-11-15T06:29:54.041Z,956.96
2022-11-15T06:30:53.425Z,956.92
2022-11-15T06:32:53.067Z,956.93
2022-11-15T06:33:53.188Z,956.97
2022-11-15T06:34:53.152Z,956.93
2022-11-15T06:35:54.103Z,956.96
2022-11-15T06:38:53.124Z,957
2022-11-15T06:39:53.219Z,956.95
2022-11-15T06:40:53.097Z,956.97
2022-11-15T06:42:53.100Z,956.95
2022-11-15T06:43:53.169Z,956.94
2022-11-15T06:44:54.401Z,956.95
2022-11-15T06:45:53.101Z,956.98
2022-11-15T06:46:53.100Z,956.97
2022-11-15T06:47:53.125Z,956.99
2022-11-15T06:48:53.115Z,957
2022-11-15T06:50:54.227Z,956.99
2022-11-15T06:51:53.219Z,956.98
2022-11-15T06:52:53.171Z,956.97
2022-11-15T06:53:53.250Z,956.99
2022-11-15T06:54:53.221Z,957.03
2022-11-15T06:55:55.353Z,957.01
2022-11-15T06:56:53.243Z,957
2022-11-15T06:57:53.136Z,957.02
2022-11-15T06:58:53.299Z,957.03
2022-11-15T06:59:53.151Z,956.98
2022-11-15T07:00:53.259Z,956.97
2022-11-15T07:01:53.239Z,956.95
2022-11-15T07:03:53.241Z,956.96
2022-11-15T07:04:54.740Z,956.97
2022-11-15T07:06:53.334Z,956.95
2022-11-15T07:07:53.154Z,956.98
2022-11-15T07:08:53.275Z,956.99
2022-11-15T07:09:53.179Z,957.01
2022-11-15T07:10:53.161Z,956.98
2022-11-15T07:11:53.291Z,956.99
2022-11-15T07:13:53.329Z,956.97
2022-11-15T07:14:53.177Z,956.95
2022-11-15T07:15:53.259Z,957
2022-11-15T07:16:53.177Z,956.99
2022-11-15T07:17:53.184Z,956.97
2022-11-15T07:18:53.239Z,956.99
2022-11-15T07:19:53.187Z,956.98
2022-11-15T07:20:53.187Z,956.92
2022-11-15T07:22:53.221Z,956.91
2022-11-15T07:23:53.279Z,956.9
2022-11-15T07:24:55.362Z,956.93
2022-11-15T07:25:53.205Z,956.97
2022-11-15T07:26:53.284Z,956.99
2022-11-15T07:27:53.262Z,956.95
2022-11-15T07:28:53.210Z,956.98
2022-11-15T07:29:53.300Z,957.02
2022-11-15T07:30:53.493Z,957.03
2022-11-15T07:31:53.221Z,957
2022-11-15T07:32:53.216Z,957.01
2022-11-15T07:33:53.221Z,956.99
2022-11-15T07:34:53.219Z,957.05
2022-11-15T07:35:53.317Z,957.04
2022-11-15T07:36:53.267Z,957.02
2022-11-15T07:37:53.223Z,956.99
2022-11-15T07:38:53.302Z,956.98
2022-11-15T07:39:53.272Z,957.01
2022-11-15T07:40:53.341Z,956.98
2022-11-15T07:41:53.230Z,956.99
2022-11-15T07:42:53.378Z,956.98
2022-11-15T07:43:53.351Z,956.96
2022-11-15T07:45:57.689Z,956.98
2022-11-15T07:46:53.493Z,957.01
2022-11-15T07:47:53.315Z,957
2022-11-15T07:48:53.246Z,957.02
2022-11-15T07:49:53.348Z,957.05
2022-11-15T07:50:53.267Z,957.01
2022-11-15T07:52:53.392Z,957.05
2022-11-15T07:53:53.329Z,957.02
2022-11-15T07:55:53.303Z,957
2022-11-15T07:56:53.334Z,957.06
2022-11-15T07:57:53.272Z,957.04
2022-11-15T07:58:53.366Z,957.07
2022-11-15T07:59:53.278Z,957.09
2022-11-15T08:00:53.287Z,957.1
2022-11-15T08:01:53.555Z,957.13
2022-11-15T08:02:53.474Z,957.2
2022-11-15T08:03:53.400Z,957.19
2022-11-15T08:04:53.386Z,957.23
2022-11-15T08:05:53.296Z,957.28
2022-11-15T08:06:53.465Z,957.31
2022-11-15T08:07:53.291Z,957.36
2022-11-15T08:08:53.298Z,957.41
2022-11-15T08:09:53.410Z,957.43
2022-11-15T08:10:53.300Z,957.4
2022-11-15T08:11:53.295Z,957.41
2022-11-15T08:12:53.396Z,957.4
2022-11-15T08:13:53.304Z,957.34
2022-11-15T08:14:53.308Z,957.32
2022-11-15T08:16:53.390Z,957.26
2022-11-15T08:17:53.319Z,957.18
2022-11-15T08:18:53.418Z,957.1
2022-11-15T08:19:53.421Z,957.06
2022-11-15T08:20:53.329Z,957.03
2022-11-15T08:21:53.426Z,957
2022-11-15T08:23:53.327Z,956.98
2022-11-15T08:24:53.438Z,956.97
2022-11-15T08:25:53.497Z,957.02
2022-11-15T08:28:53.404Z,956.93
2022-11-15T08:29:59.291Z,956.9
2022-11-15T08:30:53.437Z,956.88
2022-11-15T08:31:53.511Z,956.86
2022-11-15T08:32:53.346Z,956.84
2022-11-15T08:33:53.448Z,956.83
2022-11-15T08:35:53.366Z,956.86
2022-11-15T08:37:53.436Z,956.81
2022-11-15T08:38:53.493Z,956.78
2022-11-15T08:39:53.456Z,956.81
2022-11-15T08:40:53.372Z,956.8
2022-11-15T08:43:53.423Z,956.77
2022-11-15T08:44:53.502Z,956.72
2022-11-15T08:45:53.389Z,956.75
2022-11-15T08:46:53.527Z,956.73
2022-11-15T08:47:54.529Z,956.71
2022-11-15T08:48:53.394Z,956.72
2022-11-15T08:49:57.723Z,956.69
2022-11-15T08:50:53.494Z,956.67
2022-11-15T08:51:53.467Z,956.66
2022-11-15T08:52:53.408Z,956.69
2022-11-15T08:53:53.510Z,956.65
2022-11-15T08:54:53.407Z,956.66
2022-11-15T08:55:53.539Z,956.61
2022-11-15T08:56:53.504Z,956.67
2022-11-15T08:57:53.477Z,956.66
2022-11-15T08:58:53.426Z,956.67
2022-11-15T09:02:53.473Z,956.69
2022-11-15T09:03:53.440Z,956.64
2022-11-15T09:04:55.090Z,956.65
2022-11-15T09:05:53.520Z,956.61
2022-11-15T09:06:53.486Z,956.62
2022-11-15T09:07:53.443Z,956.6
2022-11-15T09:08:53.669Z,956.63
2022-11-15T09:11:55.779Z,956.62
2022-11-15T09:15:53.501Z,956.6
2022-11-15T09:17:53.465Z,956.61
2022-11-15T09:18:53.608Z,956.6
2022-11-15T09:19:53.569Z,956.64
2022-11-15T09:23:53.588Z,956.67
2022-11-15T09:24:53.624Z,956.69
2022-11-15T09:25:53.475Z,956.68
2022-11-15T09:26:53.479Z,956.67
2022-11-15T09:28:53.485Z,956.69
2022-11-15T09:29:53.566Z,956.74
2022-11-15T09:30:53.513Z,956.72
2022-11-15T09:31:53.593Z,956.73
2022-11-15T09:32:53.558Z,956.79
2022-11-15T09:33:53.524Z,956.77
2022-11-15T09:34:53.594Z,956.79
2022-11-15T09:35:53.502Z,956.76
2022-11-15T09:36:53.584Z,956.8
2022-11-15T09:37:56.229Z,956.78
2022-11-15T09:38:53.515Z,956.77
2022-11-15T09:39:53.515Z,956.76
2022-11-15T09:40:53.600Z,956.74
2022-11-15T09:41:54.545Z,956.72
2022-11-15T09:42:53.522Z,956.7
2022-11-15T09:43:53.612Z,956.68
2022-11-15T09:44:53.520Z,956.72
2022-11-15T09:45:53.806Z,956.7
2022-11-15T09:47:53.805Z,956.69
2022-11-15T09:50:54.642Z,956.68
2022-11-15T09:54:37.770Z,956.65
2022-11-15T09:54:55.411Z,956.67
2022-11-15T09:56:53.552Z,956.65
2022-11-15T09:57:53.664Z,956.68
2022-11-15T09:58:53.632Z,956.64
2022-11-15T09:59:54.611Z,956.63
2022-11-15T10:00:53.753Z,956.68
2022-11-15T10:01:53.713Z,956.63
2022-11-15T10:02:53.631Z,956.7
2022-11-15T10:03:53.677Z,956.68
2022-11-15T10:04:53.577Z,956.62
2022-11-15T10:05:53.572Z,956.61
2022-11-15T10:07:53.734Z,956.64
2022-11-15T10:08:53.717Z,956.62
2022-11-15T10:09:53.670Z,956.58
2022-11-15T10:11:05.172Z,956.56
2022-11-15T10:11:53.797Z,956.54
2022-11-15T10:13:53.851Z,956.52
2022-11-15T10:14:54.740Z,956.55
2022-11-15T10:15:53.723Z,956.54
2022-11-15T10:16:54.870Z,956.49
2022-11-15T10:17:53.804Z,956.47
2022-11-15T10:18:53.687Z,956.48
2022-11-15T10:19:53.713Z,956.45
2022-11-15T10:20:53.890Z,956.43
2022-11-15T10:21:53.792Z,956.44
2022-11-15T10:22:53.704Z,956.41
2022-11-15T10:23:53.827Z,956.4
2022-11-15T10:24:53.803Z,956.43
2022-11-15T10:25:54.821Z,956.39
2022-11-15T10:26:53.828Z,956.41
2022-11-15T10:27:53.806Z,956.39
2022-11-15T10:28:53.670Z,956.37
2022-11-15T10:30:53.754Z,956.34
2022-11-15T10:31:53.866Z,956.3
2022-11-15T10:32:53.901Z,956.27
2022-11-15T10:33:53.784Z,956.26
2022-11-15T10:34:53.735Z,956.24
2022-11-15T10:35:53.795Z,956.25
2022-11-15T10:36:53.727Z,956.22
2022-11-15T10:37:53.924Z,956.19
2022-11-15T10:38:53.706Z,956.22
2022-11-15T10:39:53.912Z,956.2
2022-11-15T10:40:53.698Z,956.19
2022-11-15T10:41:53.884Z,956.18
2022-11-15T10:42:53.982Z,956.19
2022-11-15T10:43:53.748Z,956.17
2022-11-15T10:44:53.759Z,956.19
2022-11-15T10:45:54.960Z,956.2
2022-11-15T10:46:53.910Z,956.23
2022-11-15T10:47:53.854Z,956.2
2022-11-15T10:48:53.870Z,956.24
2022-11-15T10:49:53.801Z,956.23
2022-11-15T10:50:53.744Z,956.22
2022-11-15T10:52:53.770Z,956.24
2022-11-15T10:54:55.060Z,956.28
2022-11-15T10:56:53.755Z,956.26
2022-11-15T10:57:53.822Z,956.25
2022-11-15T10:58:53.794Z,956.24
2022-11-15T10:59:53.978Z,956.17
2022-11-15T11:00:53.882Z,956.13
2022-11-15T11:01:53.852Z,956.15
2022-11-15T11:03:53.912Z,956.11
2022-11-15T11:04:53.844Z,956.14
2022-11-15T11:06:55.116Z,956.09
2022-11-15T11:07:53.841Z,956.07
2022-11-15T11:08:53.831Z,956.06
2022-11-15T11:09:53.871Z,956.08
2022-11-15T11:10:57.322Z,956.06
2022-11-15T11:11:53.975Z,956.04
2022-11-15T11:12:53.872Z,956.02
2022-11-15T11:13:53.884Z,955.99
2022-11-15T11:14:53.917Z,955.97
2022-11-15T11:15:53.899Z,955.98
2022-11-15T11:16:53.806Z,955.95
2022-11-15T11:17:53.903Z,955.91
2022-11-15T11:18:53.893Z,955.95
2022-11-15T11:19:53.829Z,955.91
2022-11-15T11:20:53.970Z,955.92
2022-11-15T11:22:53.866Z,955.91
2022-11-15T11:23:53.946Z,955.88
2022-11-15T11:24:53.953Z,955.86
2022-11-15T11:25:53.973Z,955.85
2022-11-15T11:26:56.921Z,955.84
2022-11-15T11:28:53.932Z,955.76
2022-11-15T11:29:54.101Z,955.74
2022-11-15T11:30:53.976Z,955.72
2022-11-15T11:31:53.823Z,955.66
2022-11-15T11:32:55.379Z,955.64
2022-11-15T11:33:54.145Z,955.62
2022-11-15T11:34:53.989Z,955.56
2022-11-15T11:35:53.991Z,955.54
2022-11-15T11:36:53.939Z,955.5
2022-11-15T11:38:55.946Z,955.51
2022-11-15T11:39:54.005Z,955.46
2022-11-15T11:40:54.107Z,955.45
2022-11-15T11:41:53.910Z,955.46
2022-11-15T11:42:53.941Z,955.45
2022-11-15T11:43:53.887Z,955.41
2022-11-15T11:45:54.050Z,955.39
2022-11-15T11:46:54.069Z,955.38
2022-11-15T11:47:53.928Z,955.34
2022-11-15T11:48:53.981Z,955.35
2022-11-15T11:49:54.084Z,955.32
2022-11-15T11:50:53.982Z,955.29
2022-11-15T11:52:54.007Z,955.21
2022-11-15T11:54:53.954Z,955.13
2022-11-15T11:55:54.240Z,955.05
2022-11-15T11:57:53.955Z,955.03
2022-11-15T11:58:53.922Z,955
2022-11-15T11:59:54.136Z,954.97
2022-11-15T12:00:53.895Z,954.94
2022-11-15T12:01:53.998Z,954.93
2022-11-15T12:02:54.102Z,954.95
2022-11-15T12:03:54.062Z,954.93
2022-11-15T12:05:53.964Z,954.91
2022-11-15T12:06:54.042Z,954.9
2022-11-15T12:07:53.957Z,954.85
2022-11-15T12:08:53.935Z,954.87
2022-11-15T12:09:54.986Z,954.89
2022-11-15T12:10:53.999Z,954.88
2022-11-15T12:11:54.013Z,954.87
2022-11-15T12:12:53.957Z,954.82
2022-11-15T12:13:54.158Z,954.87
2022-11-15T12:14:54.073Z,954.76
2022-11-15T12:15:54.032Z,954.78
2022-11-15T12:16:54.050Z,954.76
2022-11-15T12:17:53.993Z,954.74
2022-11-15T12:18:54.067Z,954.75
2022-11-15T12:19:54.013Z,954.72
2022-11-15T12:20:54.033Z,954.68
2022-11-15T12:21:54.056Z,954.63
2022-11-15T12:22:54.174Z,954.59
2022-11-15T12:23:53.995Z,954.6
2022-11-15T12:24:55.084Z,954.56
2022-11-15T12:25:54.096Z,954.55
2022-11-15T12:26:53.990Z,954.52
2022-11-15T12:29:06.721Z,954.49
2022-11-15T12:29:54.007Z,954.47
2022-11-15T12:30:54.186Z,954.51
2022-11-15T12:31:54.080Z,954.5
2022-11-15T12:36:54.013Z,954.47
2022-11-15T12:38:54.118Z,954.49
2022-11-15T12:39:54.043Z,954.46
2022-11-15T12:40:54.374Z,954.5
2022-11-15T12:41:53.948Z,954.47
2022-11-15T12:42:54.085Z,954.46
2022-11-15T12:43:53.969Z,954.42
2022-11-15T12:44:54.126Z,954.4
2022-11-15T12:46:54.038Z,954.32
2022-11-15T12:47:54.114Z,954.31
2022-11-15T12:49:54.173Z,954.25
2022-11-15T12:50:54.046Z,954.26
2022-11-15T12:51:54.139Z,954.24
2022-11-15T12:52:54.106Z,954.22
2022-11-15T12:54:54.055Z,954.24
2022-11-15T12:55:54.017Z,954.23
2022-11-15T12:56:54.117Z,954.24
2022-11-15T12:57:54.123Z,954.23
2022-11-15T12:58:53.999Z,954.24
2022-11-15T12:59:53.993Z,954.21
2022-11-15T13:00:54.171Z,954.24
2022-11-15T13:01:54.063Z,954.22
2022-11-15T13:02:54.017Z,954.26
2022-11-15T13:03:54.256Z,954.25
2022-11-15T13:04:54.212Z,954.23
2022-11-15T13:05:54.032Z,954.22
2022-11-15T13:06:54.317Z,954.2
2022-11-15T13:07:54.161Z,954.15
2022-11-15T13:08:54.275Z,954.11
2022-11-15T13:11:54.091Z,954.05
2022-11-15T13:12:54.102Z,954.07
2022-11-15T13:13:54.127Z,954.05
2022-11-15T13:14:54.051Z,954.01
2022-11-15T13:17:54.150Z,953.96
2022-11-15T13:18:54.152Z,953.97
2022-11-15T13:19:54.215Z,953.95
2022-11-15T13:20:58.029Z,953.9
2022-11-15T13:21:54.388Z,953.93
2022-11-15T13:22:54.130Z,953.92
2022-11-15T13:23:54.320Z,953.9
2022-11-15T13:24:54.189Z,953.89
2022-11-15T13:26:54.216Z,953.85
2022-11-15T13:27:54.235Z,953.86
2022-11-15T13:28:54.199Z,953.83
2022-11-15T13:29:54.185Z,953.78
2022-11-15T13:30:54.157Z,953.74
2022-11-15T13:31:55.367Z,953.72
2022-11-15T13:32:54.233Z,953.7
2022-11-15T13:33:54.232Z,953.67
2022-11-15T13:34:54.256Z,953.6
2022-11-15T13:35:54.229Z,953.62
2022-11-15T13:36:54.257Z,953.58
2022-11-15T13:37:54.383Z,953.59
2022-11-15T13:38:54.296Z,953.57
2022-11-15T13:39:54.220Z,953.52
2022-11-15T13:40:55.380Z,953.5
2022-11-15T13:41:54.267Z,953.48
2022-11-15T13:42:54.243Z,953.39
2022-11-15T13:43:54.174Z,953.4
2022-11-15T13:44:54.240Z,953.38
2022-11-15T13:45:54.243Z,953.32
2022-11-15T13:46:54.163Z,953.33
2022-11-15T13:47:54.267Z,953.26
2022-11-15T13:48:54.272Z,953.27
2022-11-15T13:49:54.133Z,953.26
2022-11-15T13:50:54.265Z,953.24
2022-11-15T13:51:54.292Z,953.22
2022-11-15T13:52:54.179Z,953.21
2022-11-15T13:54:54.389Z,953.17
2022-11-15T13:55:55.788Z,953.14
2022-11-15T13:56:54.137Z,953.17
2022-11-15T13:57:54.428Z,953.15
2022-11-15T13:58:54.390Z,953.13
2022-11-15T13:59:54.157Z,953.1
2022-11-15T14:00:54.160Z,953.11
2022-11-15T14:01:54.417Z,953.12
2022-11-15T14:02:54.165Z,953.11
2022-11-15T14:03:54.287Z,953.15
2022-11-15T14:04:54.304Z,953.09
2022-11-15T14:05:54.324Z,953.14
2022-11-15T14:06:55.609Z,953.16
2022-11-15T14:07:54.263Z,953.12
2022-11-15T14:08:54.207Z,953.1
2022-11-15T14:09:54.216Z,953.15
2022-11-15T14:10:54.433Z,953.13
2022-11-15T14:12:54.437Z,953.07
2022-11-15T14:13:54.384Z,953.05
2022-11-15T14:14:54.279Z,953.06
2022-11-15T14:15:54.425Z,953.09
2022-11-15T14:16:54.327Z,953.06
2022-11-15T14:17:54.409Z,953.05
2022-11-15T14:18:54.355Z,953.04
2022-11-15T14:19:54.282Z,953.01
2022-11-15T14:22:54.307Z,952.98
2022-11-15T14:23:54.263Z,953
2022-11-15T14:24:54.293Z,952.99
2022-11-15T14:25:54.278Z,952.97
2022-11-15T14:26:54.287Z,952.98
2022-11-15T14:27:55.695Z,953
2022-11-15T14:28:54.368Z,952.97
2022-11-15T14:29:54.351Z,952.94
2022-11-15T14:30:54.296Z,952.97
2022-11-15T14:32:54.398Z,952.93
2022-11-15T14:33:54.451Z,952.95
2022-11-15T14:34:54.386Z,952.92
2022-11-15T14:35:54.377Z,952.93
2022-11-15T14:36:54.400Z,952.94
2022-11-15T14:37:54.456Z,952.93
2022-11-15T14:38:54.495Z,952.92
2022-11-15T14:39:54.405Z,952.93
2022-11-15T14:40:54.500Z,952.9
2022-11-15T14:41:54.301Z,952.88
2022-11-15T14:42:54.441Z,952.87
2022-11-15T14:43:54.267Z,952.86
2022-11-15T14:44:54.434Z,952.83
2022-11-15T14:45:54.470Z,952.82
2022-11-15T14:46:54.343Z,952.79
2022-11-15T14:47:55.803Z,952.77